sensor_id;sensor_type;location;lat;lon;timestamp;pressure;altitude;pressure_sealevel;temperature;humidity
23339;BME280;11841;49.368;20.962;2023-03-21T00:01:59;95643.53;;;6.68;78.44
23339;BME280;11841;49.368;20.962;2023-03-21T00:04:26;95645.56;;;6.66;78.21
23339;BME280;11841;49.368;20.962;2023-03-21T00:07:03;95644.31;;;6.62;78.46
23339;BME280;11841;49.368;20.962;2023-03-21T00:09:30;95636.41;;;6.62;78.36
23339;BME280;11841;49.368;20.962;2023-03-21T00:11:56;95635.78;;;6.60;78.07
23339;BME280;11841;49.368;20.962;2023-03-21T00:14:27;95639.81;;;6.56;78.59
23339;BME280;11841;49.368;20.962;2023-03-21T00:16:56;95643.44;;;6.55;78.54
23339;BME280;11841;49.368;20.962;2023-03-21T00:19:23;95640.63;;;6.57;79.22
23339;BME280;11841;49.368;20.962;2023-03-21T00:21:51;95632.53;;;6.58;79.69
23339;BME280;11841;49.368;20.962;2023-03-21T00:24:35;95636.59;;;6.61;79.51
23339;BME280;11841;49.368;20.962;2023-03-21T00:27:02;95633.53;;;6.57;79.69
23339;BME280;11841;49.368;20.962;2023-03-21T00:29:48;95636.75;;;6.53;79.52
23339;BME280;11841;49.368;20.962;2023-03-21T00:32:15;95627.41;;;6.50;80.03
23339;BME280;11841;49.368;20.962;2023-03-21T00:34:42;95622.16;;;6.50;79.60
23339;BME280;11841;49.368;20.962;2023-03-21T00:37:25;95628.19;;;6.44;79.74
23339;BME280;11841;49.368;20.962;2023-03-21T00:39:53;95624.94;;;6.42;79.54
23339;BME280;11841;49.368;20.962;2023-03-21T00:42:20;95618.66;;;6.43;79.46
23339;BME280;11841;49.368;20.962;2023-03-21T00:44:47;95617.03;;;6.42;79.40
23339;BME280;11841;49.368;20.962;2023-03-21T00:47:13;95628.16;;;6.38;79.99
23339;BME280;11841;49.368;20.962;2023-03-21T00:49:40;95625.88;;;6.35;80.09
23339;BME280;11841;49.368;20.962;2023-03-21T00:52:07;95628.13;;;6.31;80.26
23339;BME280;11841;49.368;20.962;2023-03-21T00:54:45;95618.19;;;6.33;79.98
23339;BME280;11841;49.368;20.962;2023-03-21T00:57:12;95628.28;;;6.30;79.63
23339;BME280;11841;49.368;20.962;2023-03-21T00:59:38;95625.84;;;6.28;80.21
23339;BME280;11841;49.368;20.962;2023-03-21T01:02:04;95629.88;;;6.24;80.17
23339;BME280;11841;49.368;20.962;2023-03-21T01:04:32;95628.44;;;6.22;80.79
23339;BME280;11841;49.368;20.962;2023-03-21T01:06:59;95624.81;;;6.23;80.91
23339;BME280;11841;49.368;20.962;2023-03-21T01:09:26;95622.00;;;6.24;80.81
23339;BME280;11841;49.368;20.962;2023-03-21T01:11:52;95630.88;;;6.23;82.00
23339;BME280;11841;49.368;20.962;2023-03-21T01:14:19;95620.72;;;6.20;81.27
23339;BME280;11841;49.368;20.962;2023-03-21T01:16:52;95620.09;;;6.18;82.83
23339;BME280;11841;49.368;20.962;2023-03-21T01:19:19;95622.94;;;6.17;82.20
23339;BME280;11841;49.368;20.962;2023-03-21T01:21:56;95621.13;;;6.17;82.28
23339;BME280;11841;49.368;20.962;2023-03-21T01:24:22;95618.50;;;6.17;83.04
23339;BME280;11841;49.368;20.962;2023-03-21T01:26:49;95610.41;;;6.19;83.48
23339;BME280;11841;49.368;20.962;2023-03-21T01:29:15;95612.00;;;6.20;83.98
23339;BME280;11841;49.368;20.962;2023-03-21T01:31:42;95607.38;;;6.22;83.68
23339;BME280;11841;49.368;20.962;2023-03-21T01:34:09;95609.81;;;6.23;83.25
23339;BME280;11841;49.368;20.962;2023-03-21T01:36:35;95606.63;;;6.28;82.71
23339;BME280;11841;49.368;20.962;2023-03-21T01:39:02;95602.34;;;6.27;83.62
23339;BME280;11841;49.368;20.962;2023-03-21T01:41:30;95599.72;;;6.27;83.46
23339;BME280;11841;49.368;20.962;2023-03-21T01:44:16;95603.78;;;6.29;83.12
23339;BME280;11841;49.368;20.962;2023-03-21T01:46:43;95604.22;;;6.33;83.71
23339;BME280;11841;49.368;20.962;2023-03-21T01:49:32;95603.59;;;6.31;84.77
23339;BME280;11841;49.368;20.962;2023-03-21T01:52:05;95599.16;;;6.31;83.77
23339;BME280;11841;49.368;20.962;2023-03-21T01:54:40;95603.84;;;6.36;83.22
23339;BME280;11841;49.368;20.962;2023-03-21T01:57:09;95600.81;;;6.39;83.76
23339;BME280;11841;49.368;20.962;2023-03-21T02:02:04;95601.66;;;6.46;83.25
23339;BME280;11841;49.368;20.962;2023-03-21T02:04:33;95601.47;;;6.47;83.11
23339;BME280;11841;49.368;20.962;2023-03-21T02:07:04;95592.94;;;6.45;83.08
23339;BME280;11841;49.368;20.962;2023-03-21T02:09:33;95593.56;;;6.47;82.67
23339;BME280;11841;49.368;20.962;2023-03-21T02:12:00;95594.38;;;6.48;82.89
23339;BME280;11841;49.368;20.962;2023-03-21T02:14:27;95600.44;;;6.48;83.18
23339;BME280;11841;49.368;20.962;2023-03-21T02:19:32;95586.50;;;6.48;83.10
23339;BME280;11841;49.368;20.962;2023-03-21T02:28:18;95593.16;;;6.50;83.52
23339;BME280;11841;49.368;20.962;2023-03-21T02:38:42;95590.75;;;6.55;83.73
23339;BME280;11841;49.368;20.962;2023-03-21T02:41:17;95598.66;;;6.55;84.10
23339;BME280;11841;49.368;20.962;2023-03-21T02:43:53;95589.16;;;6.54;84.18
23339;BME280;11841;49.368;20.962;2023-03-21T02:46:25;95597.44;;;6.51;85.67
23339;BME280;11841;49.368;20.962;2023-03-21T02:49:10;95590.94;;;6.47;85.21
23339;BME280;11841;49.368;20.962;2023-03-21T02:51:38;95592.38;;;6.50;84.93
23339;BME280;11841;49.368;20.962;2023-03-21T02:54:08;95594.81;;;6.51;85.11
23339;BME280;11841;49.368;20.962;2023-03-21T02:56:57;95598.44;;;6.50;85.56
23339;BME280;11841;49.368;20.962;2023-03-21T02:59:24;95595.19;;;6.48;85.30
23339;BME280;11841;49.368;20.962;2023-03-21T03:01:53;95596.63;;;6.51;85.44
23339;BME280;11841;49.368;20.962;2023-03-21T03:04:24;95596.22;;;6.54;84.96
23339;BME280;11841;49.368;20.962;2023-03-21T03:12:08;95601.53;;;6.60;84.89
23339;BME280;11841;49.368;20.962;2023-03-21T03:22:22;95590.00;;;6.61;85.26
23339;BME280;11841;49.368;20.962;2023-03-21T03:24:56;95579.47;;;6.61;85.27
23339;BME280;11841;49.368;20.962;2023-03-21T03:27:31;95580.09;;;6.63;85.29
23339;BME280;11841;49.368;20.962;2023-03-21T03:30:00;95585.78;;;6.67;84.96
23339;BME280;11841;49.368;20.962;2023-03-21T03:32:29;95583.53;;;6.70;84.94
23339;BME280;11841;49.368;20.962;2023-03-21T03:34:56;95579.28;;;6.69;84.70
23339;BME280;11841;49.368;20.962;2023-03-21T03:37:24;95569.34;;;6.65;86.28
23339;BME280;11841;49.368;20.962;2023-03-21T03:42:29;95575.63;;;6.64;86.48
23339;BME280;11841;49.368;20.962;2023-03-21T03:44:56;95575.63;;;6.64;85.88
23339;BME280;11841;49.368;20.962;2023-03-21T03:47:33;95570.97;;;6.66;85.47
23339;BME280;11841;49.368;20.962;2023-03-21T03:50:42;95562.88;;;6.67;86.11
23339;BME280;11841;49.368;20.962;2023-03-21T03:53:10;95570.56;;;6.69;86.08
23339;BME280;11841;49.368;20.962;2023-03-21T03:55:44;95568.75;;;6.69;85.43
23339;BME280;11841;49.368;20.962;2023-03-21T03:58:11;95573.00;;;6.70;85.60
23339;BME280;11841;49.368;20.962;2023-03-21T04:00:48;95572.63;;;6.73;86.21
23339;BME280;11841;49.368;20.962;2023-03-21T04:03:14;95570.63;;;6.75;85.55
23339;BME280;11841;49.368;20.962;2023-03-21T04:05:41;95568.34;;;6.72;86.51
23339;BME280;11841;49.368;20.962;2023-03-21T04:08:12;95573.63;;;6.72;86.42
23339;BME280;11841;49.368;20.962;2023-03-21T04:10:39;95576.88;;;6.74;85.92
23339;BME280;11841;49.368;20.962;2023-03-21T04:13:06;95575.91;;;6.75;86.29
23339;BME280;11841;49.368;20.962;2023-03-21T04:15:32;95579.13;;;6.77;86.07
23339;BME280;11841;49.368;20.962;2023-03-21T04:17:59;95578.53;;;6.75;86.25
23339;BME280;11841;49.368;20.962;2023-03-21T04:20:25;95579.13;;;6.77;86.35
23339;BME280;11841;49.368;20.962;2023-03-21T04:23:02;95573.84;;;6.77;86.07
23339;BME280;11841;49.368;20.962;2023-03-21T04:25:29;95572.03;;;6.78;86.04
23339;BME280;11841;49.368;20.962;2023-03-21T04:27:59;95576.91;;;6.81;86.11
23339;BME280;11841;49.368;20.962;2023-03-21T04:30:26;95577.94;;;6.80;85.59
23339;BME280;11841;49.368;20.962;2023-03-21T04:32:52;95576.91;;;6.81;86.14
23339;BME280;11841;49.368;20.962;2023-03-21T04:35:22;95576.50;;;6.84;86.31
23339;BME280;11841;49.368;20.962;2023-03-21T04:37:49;95578.56;;;6.82;85.58
23339;BME280;11841;49.368;20.962;2023-03-21T04:40:16;95580.38;;;6.81;86.27
23339;BME280;11841;49.368;20.962;2023-03-21T04:42:45;95577.53;;;6.83;86.45
23339;BME280;11841;49.368;20.962;2023-03-21T04:45:12;95587.25;;;6.82;85.90
23339;BME280;11841;49.368;20.962;2023-03-21T04:47:39;95581.97;;;6.82;85.88
23339;BME280;11841;49.368;20.962;2023-03-21T04:50:07;95592.16;;;6.85;86.32
23339;BME280;11841;49.368;20.962;2023-03-21T04:52:34;95592.16;;;6.85;86.16
23339;BME280;11841;49.368;20.962;2023-03-21T04:55:00;95596.41;;;6.86;85.78
23339;BME280;11841;49.368;20.962;2023-03-21T04:57:27;95591.75;;;6.88;86.09
23339;BME280;11841;49.368;20.962;2023-03-21T04:59:53;95597.66;;;6.90;86.35
23339;BME280;11841;49.368;20.962;2023-03-21T05:02:20;95599.06;;;6.93;85.99
23339;BME280;11841;49.368;20.962;2023-03-21T05:04:47;95602.31;;;6.95;85.61
23339;BME280;11841;49.368;20.962;2023-03-21T05:07:13;95593.59;;;6.94;86.35
23339;BME280;11841;49.368;20.962;2023-03-21T05:09:40;95590.94;;;6.94;86.46
23339;BME280;11841;49.368;20.962;2023-03-21T05:12:06;95596.00;;;6.89;86.78
23339;BME280;11841;49.368;20.962;2023-03-21T05:14:33;95597.03;;;6.88;86.75
23339;BME280;11841;49.368;20.962;2023-03-21T05:16:59;95595.22;;;6.89;86.42
23339;BME280;11841;49.368;20.962;2023-03-21T05:19:30;95595.81;;;6.91;86.14
23339;BME280;11841;49.368;20.962;2023-03-21T05:22:02;95601.50;;;6.94;86.34
23339;BME280;11841;49.368;20.962;2023-03-21T05:24:30;95597.88;;;6.95;86.52
23339;BME280;11841;49.368;20.962;2023-03-21T05:26:57;95605.38;;;6.98;86.15
23339;BME280;11841;49.368;20.962;2023-03-21T05:29:31;95602.72;;;6.98;86.44
23339;BME280;11841;49.368;20.962;2023-03-21T05:31:58;95605.56;;;6.90;88.91
23339;BME280;11841;49.368;20.962;2023-03-21T05:34:25;95611.13;;;6.74;89.42
23339;BME280;11841;49.368;20.962;2023-03-21T05:36:52;95614.41;;;6.76;88.48
23339;BME280;11841;49.368;20.962;2023-03-21T05:39:18;95615.81;;;6.79;90.38
23339;BME280;11841;49.368;20.962;2023-03-21T05:41:45;95605.09;;;6.80;89.18
23339;BME280;11841;49.368;20.962;2023-03-21T05:44:12;95613.22;;;6.85;88.69
23339;BME280;11841;49.368;20.962;2023-03-21T05:46:38;95604.53;;;6.91;88.38
23339;BME280;11841;49.368;20.962;2023-03-21T05:49:05;95613.25;;;6.92;88.29
23339;BME280;11841;49.368;20.962;2023-03-21T05:51:31;95606.97;;;6.93;88.48
23339;BME280;11841;49.368;20.962;2023-03-21T05:53:58;95603.94;;;6.96;88.22
23339;BME280;11841;49.368;20.962;2023-03-21T05:56:24;95605.38;;;6.98;88.11
23339;BME280;11841;49.368;20.962;2023-03-21T05:58:51;95609.00;;;6.97;88.40
23339;BME280;11841;49.368;20.962;2023-03-21T06:01:17;95613.06;;;7.00;89.04
23339;BME280;11841;49.368;20.962;2023-03-21T06:03:44;95618.78;;;7.03;88.25
23339;BME280;11841;49.368;20.962;2023-03-21T06:06:11;95617.75;;;7.04;88.81
23339;BME280;11841;49.368;20.962;2023-03-21T06:08:37;95623.41;;;7.01;89.28
23339;BME280;11841;49.368;20.962;2023-03-21T06:11:04;95618.75;;;6.97;90.63
23339;BME280;11841;49.368;20.962;2023-03-21T06:13:32;95617.31;;;6.94;89.94
23339;BME280;11841;49.368;20.962;2023-03-21T06:15:58;95616.47;;;6.87;91.76
23339;BME280;11841;49.368;20.962;2023-03-21T06:18:25;95616.84;;;6.84;92.42
23339;BME280;11841;49.368;20.962;2023-03-21T06:20:51;95614.44;;;6.89;92.02
23339;BME280;11841;49.368;20.962;2023-03-21T06:23:19;95620.97;;;6.93;93.68
23339;BME280;11841;49.368;20.962;2023-03-21T06:25:46;95609.59;;;6.93;92.49
23339;BME280;11841;49.368;20.962;2023-03-21T06:28:13;95618.94;;;6.95;92.98
23339;BME280;11841;49.368;20.962;2023-03-21T06:30:39;95611.06;;;7.02;92.49
23339;BME280;11841;49.368;20.962;2023-03-21T06:33:06;95617.38;;;7.07;93.21
23339;BME280;11841;49.368;20.962;2023-03-21T06:35:32;95616.97;;;7.10;93.36
23339;BME280;11841;49.368;20.962;2023-03-21T06:37:59;95623.88;;;7.11;94.08
23339;BME280;11841;49.368;20.962;2023-03-21T06:40:25;95622.88;;;7.12;94.33
23339;BME280;11841;49.368;20.962;2023-03-21T06:42:51;95619.00;;;7.15;95.34
23339;BME280;11841;49.368;20.962;2023-03-21T06:45:18;95623.88;;;7.11;96.38
23339;BME280;11841;49.368;20.962;2023-03-21T06:47:45;95619.41;;;7.12;95.53
23339;BME280;11841;49.368;20.962;2023-03-21T06:50:11;95619.81;;;7.09;95.96
23339;BME280;11841;49.368;20.962;2023-03-21T06:52:38;95624.09;;;7.16;94.99
23339;BME280;11841;49.368;20.962;2023-03-21T06:55:04;95620.28;;;7.25;95.38
23339;BME280;11841;49.368;20.962;2023-03-21T06:57:31;95618.66;;;7.31;94.53
23339;BME280;11841;49.368;20.962;2023-03-21T06:59:58;95614.59;;;7.28;96.87
23339;BME280;11841;49.368;20.962;2023-03-21T07:02:24;95627.56;;;7.30;97.27
23339;BME280;11841;49.368;20.962;2023-03-21T07:04:51;95615.84;;;7.32;96.27
23339;BME280;11841;49.368;20.962;2023-03-21T07:07:17;95629.84;;;7.40;96.95
23339;BME280;11841;49.368;20.962;2023-03-21T07:09:44;95621.13;;;7.46;96.22
23339;BME280;11841;49.368;20.962;2023-03-21T07:12:10;95633.13;;;7.48;97.73
23339;BME280;11841;49.368;20.962;2023-03-21T07:14:37;95631.69;;;7.46;98.96
23339;BME280;11841;49.368;20.962;2023-03-21T07:17:03;95627.44;;;7.45;100.00
23339;BME280;11841;49.368;20.962;2023-03-21T07:19:30;95626.63;;;7.51;98.98
23339;BME280;11841;49.368;20.962;2023-03-21T07:21:56;95627.66;;;7.56;98.26
23339;BME280;11841;49.368;20.962;2023-03-21T07:24:23;95630.50;;;7.61;98.99
23339;BME280;11841;49.368;20.962;2023-03-21T07:26:49;95636.63;;;7.68;98.61
23339;BME280;11841;49.368;20.962;2023-03-21T07:29:16;95635.00;;;7.74;98.95
23339;BME280;11841;49.368;20.962;2023-03-21T07:31:42;95634.59;;;7.77;99.16
23339;BME280;11841;49.368;20.962;2023-03-21T07:34:09;95636.22;;;7.78;99.87
23339;BME280;11841;49.368;20.962;2023-03-21T07:36:35;95638.25;;;7.82;99.46
23339;BME280;11841;49.368;20.962;2023-03-21T07:39:03;95630.72;;;7.86;99.98
23339;BME280;11841;49.368;20.962;2023-03-21T07:41:30;95632.78;;;7.90;100.00
23339;BME280;11841;49.368;20.962;2023-03-21T07:43:56;95630.56;;;7.94;100.00
23339;BME280;11841;49.368;20.962;2023-03-21T07:46:23;95630.75;;;7.99;100.00
23339;BME280;11841;49.368;20.962;2023-03-21T07:48:49;95630.97;;;8.04;99.74
23339;BME280;11841;49.368;20.962;2023-03-21T07:51:16;95633.19;;;8.07;100.00
23339;BME280;11841;49.368;20.962;2023-03-21T07:53:43;95631.78;;;8.11;100.00
23339;BME280;11841;49.368;20.962;2023-03-21T07:56:13;95631.38;;;8.14;99.42
23339;BME280;11841;49.368;20.962;2023-03-21T07:58:41;95637.47;;;8.21;99.40
23339;BME280;11841;49.368;20.962;2023-03-21T08:01:07;95633.41;;;8.31;99.04
23339;BME280;11841;49.368;20.962;2023-03-21T08:03:34;95633.81;;;8.35;100.00
23339;BME280;11841;49.368;20.962;2023-03-21T08:06:00;95629.16;;;8.37;100.00
23339;BME280;11841;49.368;20.962;2023-03-21T08:08:27;95627.53;;;8.42;100.00
23339;BME280;11841;49.368;20.962;2023-03-21T08:10:55;95637.47;;;8.47;100.00
23339;BME280;11841;49.368;20.962;2023-03-21T08:13:22;95631.38;;;8.53;100.00
23339;BME280;11841;49.368;20.962;2023-03-21T08:15:49;95631.16;;;8.61;100.00
23339;BME280;11841;49.368;20.962;2023-03-21T08:18:15;95635.22;;;8.70;99.12
23339;BME280;11841;49.368;20.962;2023-03-21T08:20:42;95629.25;;;8.81;97.94
23339;BME280;11841;49.368;20.962;2023-03-21T08:23:08;95634.53;;;8.88;96.08
23339;BME280;11841;49.368;20.962;2023-03-21T08:25:34;95630.22;;;9.00;95.18
23339;BME280;11841;49.368;20.962;2023-03-21T08:28:02;95633.28;;;9.03;94.08
23339;BME280;11841;49.368;20.962;2023-03-21T08:30:29;95638.94;;;9.07;93.03
23339;BME280;11841;49.368;20.962;2023-03-21T08:32:56;95627.13;;;9.16;93.25
23339;BME280;11841;49.368;20.962;2023-03-21T08:35:26;95635.47;;;9.19;92.55
23339;BME280;11841;49.368;20.962;2023-03-21T08:37:53;95641.16;;;9.23;92.66
23339;BME280;11841;49.368;20.962;2023-03-21T08:40:19;95636.25;;;9.26;91.87
23339;BME280;11841;49.368;20.962;2023-03-21T08:42:46;95641.28;;;9.34;91.36
23339;BME280;11841;49.368;20.962;2023-03-21T08:45:13;95647.38;;;9.41;91.13
23339;BME280;11841;49.368;20.962;2023-03-21T08:47:42;95643.66;;;9.49;89.98
23339;BME280;11841;49.368;20.962;2023-03-21T08:50:10;95641.34;;;9.59;90.16
23339;BME280;11841;49.368;20.962;2023-03-21T08:52:37;95648.66;;;9.70;89.26
23339;BME280;11841;49.368;20.962;2023-03-21T08:55:04;95657.38;;;9.77;86.97
23339;BME280;11841;49.368;20.962;2023-03-21T08:57:30;95649.97;;;9.86;86.21
23339;BME280;11841;49.368;20.962;2023-03-21T08:59:57;95651.97;;;9.90;84.77
23339;BME280;11841;49.368;20.962;2023-03-21T09:02:23;95649.72;;;9.94;84.64
23339;BME280;11841;49.368;20.962;2023-03-21T09:04:50;95651.94;;;9.97;84.19
23339;BME280;11841;49.368;20.962;2023-03-21T09:07:20;95656.78;;;10.00;83.79
23339;BME280;11841;49.368;20.962;2023-03-21T09:09:47;95649.44;;;10.02;83.45
23339;BME280;11841;49.368;20.962;2023-03-21T09:12:28;95655.94;;;10.06;83.62
23339;BME280;11841;49.368;20.962;2023-03-21T09:14:54;95655.94;;;10.06;82.64
23339;BME280;11841;49.368;20.962;2023-03-21T09:17:21;95650.66;;;10.06;82.32
23339;BME280;11841;49.368;20.962;2023-03-21T09:19:48;95655.31;;;10.10;83.12
23339;BME280;11841;49.368;20.962;2023-03-21T09:22:15;95655.09;;;10.12;82.44
23339;BME280;11841;49.368;20.962;2023-03-21T09:24:46;95652.03;;;10.15;81.93
23339;BME280;11841;49.368;20.962;2023-03-21T09:27:15;95656.91;;;10.18;80.97
23339;BME280;11841;49.368;20.962;2023-03-21T09:29:43;95656.88;;;10.24;81.10
23339;BME280;11841;49.368;20.962;2023-03-21T09:32:10;95662.31;;;10.29;80.85
23339;BME280;11841;49.368;20.962;2023-03-21T09:34:37;95658.41;;;10.32;79.80
23339;BME280;11841;49.368;20.962;2023-03-21T09:37:06;95660.75;;;10.22;78.50
23339;BME280;11841;49.368;20.962;2023-03-21T09:39:39;95657.09;;;10.23;79.53
23339;BME280;11841;49.368;20.962;2023-03-21T09:44:37;95664.09;;;10.35;79.44
23339;BME280;11841;49.368;20.962;2023-03-21T09:49:40;95658.97;;;10.40;78.76
23339;BME280;11841;49.368;20.962;2023-03-21T09:52:11;95653.47;;;10.42;77.73
23339;BME280;11841;49.368;20.962;2023-03-21T09:54:39;95642.44;;;10.45;77.60
23339;BME280;11841;49.368;20.962;2023-03-21T09:59:40;95636.19;;;10.57;77.40
23339;BME280;11841;49.368;20.962;2023-03-21T10:02:19;95636.56;;;10.61;77.38
23339;BME280;11841;49.368;20.962;2023-03-21T10:04:47;95637.91;;;10.70;77.31
23339;BME280;11841;49.368;20.962;2023-03-21T10:07:14;95640.72;;;10.75;78.30
23339;BME280;11841;49.368;20.962;2023-03-21T10:09:43;95635.41;;;10.75;78.03
23339;BME280;11841;49.368;20.962;2023-03-21T10:12:23;95635.03;;;10.71;77.87
23339;BME280;11841;49.368;20.962;2023-03-21T10:14:56;95639.97;;;10.68;77.55
23339;BME280;11841;49.368;20.962;2023-03-21T10:17:34;95632.66;;;10.63;77.55
23339;BME280;11841;49.368;20.962;2023-03-21T10:22:37;95634.00;;;10.72;77.37
23339;BME280;11841;49.368;20.962;2023-03-21T10:25:04;95627.59;;;10.80;76.96
23339;BME280;11841;49.368;20.962;2023-03-21T10:27:32;95627.91;;;10.90;75.39
23339;BME280;11841;49.368;20.962;2023-03-21T10:29:59;95634.41;;;10.94;76.24
23339;BME280;11841;49.368;20.962;2023-03-21T10:32:26;95620.38;;;11.05;75.62
23339;BME280;11841;49.368;20.962;2023-03-21T10:34:54;95615.22;;;11.10;75.56
23339;BME280;11841;49.368;20.962;2023-03-21T10:37:22;95611.69;;;11.16;75.46
23339;BME280;11841;49.368;20.962;2023-03-21T10:39:49;95612.22;;;11.25;75.52
23339;BME280;11841;49.368;20.962;2023-03-21T10:42:24;95616.47;;;11.26;74.93
23339;BME280;11841;49.368;20.962;2023-03-21T10:44:52;95615.66;;;11.25;75.70
23339;BME280;11841;49.368;20.962;2023-03-21T10:47:21;95612.13;;;11.31;75.98
23339;BME280;11841;49.368;20.962;2023-03-21T10:49:48;95611.44;;;11.36;74.81
23339;BME280;11841;49.368;20.962;2023-03-21T10:52:33;95611.00;;;11.39;73.25
23339;BME280;11841;49.368;20.962;2023-03-21T10:55:04;95607.69;;;11.43;73.81
23339;BME280;11841;49.368;20.962;2023-03-21T10:57:32;95609.44;;;11.49;73.99
23339;BME280;11841;49.368;20.962;2023-03-21T10:59:59;95606.59;;;11.62;73.34
23339;BME280;11841;49.368;20.962;2023-03-21T11:02:31;95605.38;;;11.65;73.85
23339;BME280;11841;49.368;20.962;2023-03-21T11:05:05;95608.53;;;11.73;72.68
23339;BME280;11841;49.368;20.962;2023-03-21T11:07:34;95606.44;;;11.75;72.32
23339;BME280;11841;49.368;20.962;2023-03-21T11:10:11;95605.63;;;11.75;71.96
23339;BME280;11841;49.368;20.962;2023-03-21T11:12:45;95599.88;;;11.78;71.42
23339;BME280;11841;49.368;20.962;2023-03-21T11:15:23;95600.09;;;11.76;72.05
23339;BME280;11841;49.368;20.962;2023-03-21T11:17:51;95600.69;;;11.78;70.74
23339;BME280;11841;49.368;20.962;2023-03-21T11:20:18;95601.13;;;11.75;70.48
23339;BME280;11841;49.368;20.962;2023-03-21T11:22:45;95603.78;;;11.75;69.79
23339;BME280;11841;49.368;20.962;2023-03-21T11:25:23;95608.53;;;11.73;70.12
23339;BME280;11841;49.368;20.962;2023-03-21T11:27:52;95605.72;;;11.68;69.24
23339;BME280;11841;49.368;20.962;2023-03-21T11:30:20;95606.56;;;11.69;70.03
23339;BME280;11841;49.368;20.962;2023-03-21T11:32:50;95614.16;;;11.65;69.64
23339;BME280;11841;49.368;20.962;2023-03-21T11:35:19;95615.59;;;11.61;68.85
23339;BME280;11841;49.368;20.962;2023-03-21T11:38:05;95625.13;;;11.51;68.39
23339;BME280;11841;49.368;20.962;2023-03-21T11:40:36;95621.09;;;11.48;69.35
23339;BME280;11841;49.368;20.962;2023-03-21T11:48:47;95617.72;;;11.05;73.98
23339;BME280;11841;49.368;20.962;2023-03-21T11:56:35;95614.63;;;10.72;77.54
23339;BME280;11841;49.368;20.962;2023-03-21T11:59:11;95616.78;;;10.81;77.51
23339;BME280;11841;49.368;20.962;2023-03-21T12:06:45;95624.25;;;10.91;78.30
23339;BME280;11841;49.368;20.962;2023-03-21T12:17:48;95613.38;;;11.11;79.15
23339;BME280;11841;49.368;20.962;2023-03-21T12:25:28;95606.09;;;11.06;81.36
23339;BME280;11841;49.368;20.962;2023-03-21T12:28:03;95602.50;;;11.01;80.83
23339;BME280;11841;49.368;20.962;2023-03-21T12:40:59;95587.22;;;11.14;80.83
23339;BME280;11841;49.368;20.962;2023-03-21T12:43:46;95590.91;;;11.13;80.21
23339;BME280;11841;49.368;20.962;2023-03-21T12:46:25;95573.97;;;11.14;80.65
23339;BME280;11841;49.368;20.962;2023-03-21T12:48:56;95581.38;;;11.24;79.83
23339;BME280;11841;49.368;20.962;2023-03-21T12:51:26;95585.91;;;11.23;79.52
23339;BME280;11841;49.368;20.962;2023-03-21T12:53:56;95578.69;;;11.12;80.38
23339;BME280;11841;49.368;20.962;2023-03-21T12:56:32;95577.78;;;11.00;78.86
23339;BME280;11841;49.368;20.962;2023-03-21T12:59:05;95578.03;;;10.98;78.38
23339;BME280;11841;49.368;20.962;2023-03-21T13:01:36;95581.03;;;11.02;78.81
23339;BME280;11841;49.368;20.962;2023-03-21T13:04:12;95577.16;;;11.05;78.15
23339;BME280;11841;49.368;20.962;2023-03-21T13:06:42;95572.53;;;11.12;77.63
23339;BME280;11841;49.368;20.962;2023-03-21T13:09:25;95573.69;;;11.04;79.24
23339;BME280;11841;49.368;20.962;2023-03-21T13:14:51;95574.94;;;10.83;80.87
23339;BME280;11841;49.368;20.962;2023-03-21T13:17:41;95576.25;;;10.74;81.48
23339;BME280;11841;49.368;20.962;2023-03-21T13:22:33;95582.38;;;10.75;82.23
23339;BME280;11841;49.368;20.962;2023-03-21T13:25:04;95576.91;;;10.70;83.00
23339;BME280;11841;49.368;20.962;2023-03-21T13:27:31;95578.22;;;10.61;83.56
23339;BME280;11841;49.368;20.962;2023-03-21T13:32:35;95584.41;;;10.55;83.10
23339;BME280;11841;49.368;20.962;2023-03-21T13:37:42;95581.25;;;10.46;82.97
23339;BME280;11841;49.368;20.962;2023-03-21T13:40:20;95577.34;;;10.49;83.26
23339;BME280;11841;49.368;20.962;2023-03-21T13:42:51;95576.16;;;10.45;83.43
23339;BME280;11841;49.368;20.962;2023-03-21T13:45:22;95579.81;;;10.44;83.55
23339;BME280;11841;49.368;20.962;2023-03-21T13:55:35;95576.44;;;10.37;84.17
23339;BME280;11841;49.368;20.962;2023-03-21T14:01:13;95581.31;;;10.40;84.54
23339;BME280;11841;49.368;20.962;2023-03-21T14:03:43;95573.06;;;10.48;85.16
23339;BME280;11841;49.368;20.962;2023-03-21T14:06:11;95581.19;;;10.53;84.91
23339;BME280;11841;49.368;20.962;2023-03-21T14:08:38;95580.59;;;10.51;85.74
23339;BME280;11841;49.368;20.962;2023-03-21T14:11:07;95585.28;;;10.49;85.49
23339;BME280;11841;49.368;20.962;2023-03-21T14:13:35;95578.38;;;10.48;86.21
23339;BME280;11841;49.368;20.962;2023-03-21T14:16:15;95578.81;;;10.45;86.06
23339;BME280;11841;49.368;20.962;2023-03-21T14:18:44;95582.84;;;10.47;85.60
23339;BME280;11841;49.368;20.962;2023-03-21T14:21:22;95578.22;;;10.43;85.41
23339;BME280;11841;49.368;20.962;2023-03-21T14:26:24;95574.97;;;10.41;85.53
23339;BME280;11841;49.368;20.962;2023-03-21T14:28:51;95571.94;;;10.37;85.58
23339;BME280;11841;49.368;20.962;2023-03-21T14:31:18;95576.63;;;10.42;85.48
23339;BME280;11841;49.368;20.962;2023-03-21T14:33:46;95567.69;;;10.36;86.36
23339;BME280;11841;49.368;20.962;2023-03-21T14:36:18;95568.81;;;10.22;87.65
23339;BME280;11841;49.368;20.962;2023-03-21T14:41:33;95556.25;;;10.18;87.88
23339;BME280;11841;49.368;20.962;2023-03-21T14:46:29;95567.84;;;10.41;88.74
23339;BME280;11841;49.368;20.962;2023-03-21T14:49:08;95564.16;;;10.42;88.03
23339;BME280;11841;49.368;20.962;2023-03-21T14:51:35;95559.00;;;10.47;87.79
23339;BME280;11841;49.368;20.962;2023-03-21T14:54:01;95566.72;;;10.49;87.89
23339;BME280;11841;49.368;20.962;2023-03-21T14:56:28;95558.22;;;10.47;87.63
23339;BME280;11841;49.368;20.962;2023-03-21T14:58:54;95552.38;;;10.56;87.31
23339;BME280;11841;49.368;20.962;2023-03-21T15:01:29;95551.66;;;10.67;86.64